sensor_id;sensor_type;location;lat;lon;timestamp;P1;durP1;ratioP1;P2;durP2;ratioP2
151;SDS011;68;48.792;9.164;2023-03-04T00:02:00;55.63;;;29.90;;
151;SDS011;68;48.792;9.164;2023-03-04T00:04:26;57.38;;;29.20;;
151;SDS011;68;48.792;9.164;2023-03-04T00:06:53;52.95;;;29.05;;
151;SDS011;68;48.792;9.164;2023-03-04T00:09:20;53.45;;;28.13;;
151;SDS011;68;48.792;9.164;2023-03-04T00:11:47;49.03;;;27.70;;
151;SDS011;68;48.792;9.164;2023-03-04T00:14:13;50.72;;;28.83;;
151;SDS011;68;48.792;9.164;2023-03-04T00:16:42;55.45;;;29.88;;
151;SDS011;68;48.792;9.164;2023-03-04T00:19:08;53.95;;;28.58;;
151;SDS011;68;48.792;9.164;2023-03-04T00:21:36;53.33;;;28.95;;
151;SDS011;68;48.792;9.164;2023-03-04T00:24:02;52.60;;;28.35;;
151;SDS011;68;48.792;9.164;2023-03-04T00:26:30;49.30;;;28.02;;
151;SDS011;68;48.792;9.164;2023-03-04T00:28:56;52.10;;;28.63;;
151;SDS011;68;48.792;9.164;2023-03-04T00:31:23;55.25;;;28.92;;
151;SDS011;68;48.792;9.164;2023-03-04T00:33:51;49.72;;;27.95;;
151;SDS011;68;48.792;9.164;2023-03-04T00:36:18;51.13;;;28.23;;
151;SDS011;68;48.792;9.164;2023-03-04T00:38:45;57.67;;;29.20;;
151;SDS011;68;48.792;9.164;2023-03-04T00:41:11;53.97;;;29.15;;
151;SDS011;68;48.792;9.164;2023-03-04T00:43:38;50.00;;;28.00;;
151;SDS011;68;48.792;9.164;2023-03-04T00:46:05;53.33;;;28.38;;
151;SDS011;68;48.792;9.164;2023-03-04T00:48:31;55.10;;;29.45;;
151;SDS011;68;48.792;9.164;2023-03-04T00:50:59;53.17;;;28.95;;
151;SDS011;68;48.792;9.164;2023-03-04T00:53:26;55.35;;;29.27;;
151;SDS011;68;48.792;9.164;2023-03-04T00:55:53;58.53;;;29.92;;
151;SDS011;68;48.792;9.164;2023-03-04T00:58:20;57.70;;;29.52;;
151;SDS011;68;48.792;9.164;2023-03-04T01:00:46;55.40;;;29.65;;
151;SDS011;68;48.792;9.164;2023-03-04T01:03:13;53.22;;;29.40;;
151;SDS011;68;48.792;9.164;2023-03-04T01:05:40;55.90;;;30.05;;
151;SDS011;68;48.792;9.164;2023-03-04T01:08:08;51.35;;;28.85;;
151;SDS011;68;48.792;9.164;2023-03-04T01:10:35;55.05;;;29.60;;
151;SDS011;68;48.792;9.164;2023-03-04T01:13:02;53.20;;;28.60;;
151;SDS011;68;48.792;9.164;2023-03-04T01:15:28;52.45;;;28.40;;
151;SDS011;68;48.792;9.164;2023-03-04T01:17:55;52.25;;;27.95;;
151;SDS011;68;48.792;9.164;2023-03-04T01:20:22;54.88;;;27.95;;
151;SDS011;68;48.792;9.164;2023-03-04T01:22:49;50.70;;;28.23;;
151;SDS011;68;48.792;9.164;2023-03-04T01:25:17;49.72;;;28.98;;
151;SDS011;68;48.792;9.164;2023-03-04T01:27:44;53.78;;;28.55;;
151;SDS011;68;48.792;9.164;2023-03-04T01:30:11;51.00;;;28.00;;
151;SDS011;68;48.792;9.164;2023-03-04T01:32:38;51.83;;;27.27;;
151;SDS011;68;48.792;9.164;2023-03-04T01:35:05;48.60;;;27.73;;
151;SDS011;68;48.792;9.164;2023-03-04T01:37:32;53.38;;;27.20;;
151;SDS011;68;48.792;9.164;2023-03-04T01:39:59;48.35;;;26.63;;
151;SDS011;68;48.792;9.164;2023-03-04T01:42:28;55.38;;;29.15;;
151;SDS011;68;48.792;9.164;2023-03-04T01:44:57;53.38;;;27.23;;
151;SDS011;68;48.792;9.164;2023-03-04T01:47:25;52.80;;;26.60;;
151;SDS011;68;48.792;9.164;2023-03-04T01:49:55;48.72;;;26.98;;
151;SDS011;68;48.792;9.164;2023-03-04T01:52:23;54.55;;;28.25;;
151;SDS011;68;48.792;9.164;2023-03-04T01:54:52;48.75;;;27.05;;
151;SDS011;68;48.792;9.164;2023-03-04T01:57:19;49.05;;;26.73;;
151;SDS011;68;48.792;9.164;2023-03-04T02:00:09;48.25;;;27.08;;
151;SDS011;68;48.792;9.164;2023-03-04T02:02:42;45.83;;;25.85;;
151;SDS011;68;48.792;9.164;2023-03-04T02:05:09;50.45;;;26.90;;
151;SDS011;68;48.792;9.164;2023-03-04T02:07:36;48.55;;;26.00;;
151;SDS011;68;48.792;9.164;2023-03-04T02:10:04;48.75;;;26.50;;
151;SDS011;68;48.792;9.164;2023-03-04T02:12:31;47.65;;;26.52;;
151;SDS011;68;48.792;9.164;2023-03-04T02:14:59;50.22;;;27.10;;
151;SDS011;68;48.792;9.164;2023-03-04T02:17:26;47.15;;;27.20;;
151;SDS011;68;48.792;9.164;2023-03-04T02:19:55;44.63;;;26.13;;
151;SDS011;68;48.792;9.164;2023-03-04T02:22:27;49.35;;;26.58;;
151;SDS011;68;48.792;9.164;2023-03-04T02:24:55;48.30;;;27.08;;
151;SDS011;68;48.792;9.164;2023-03-04T02:27:26;45.00;;;25.60;;
151;SDS011;68;48.792;9.164;2023-03-04T02:29:53;56.63;;;27.95;;
151;SDS011;68;48.792;9.164;2023-03-04T02:32:20;51.92;;;28.23;;
151;SDS011;68;48.792;9.164;2023-03-04T02:34:47;48.38;;;25.85;;
151;SDS011;68;48.792;9.164;2023-03-04T02:37:15;48.30;;;26.92;;
151;SDS011;68;48.792;9.164;2023-03-04T02:39:44;48.50;;;27.65;;
151;SDS011;68;48.792;9.164;2023-03-04T02:42:12;48.70;;;26.42;;
151;SDS011;68;48.792;9.164;2023-03-04T02:44:41;46.25;;;26.23;;
151;SDS011;68;48.792;9.164;2023-03-04T02:47:12;49.25;;;27.85;;
151;SDS011;68;48.792;9.164;2023-03-04T02:49:41;49.17;;;27.33;;
151;SDS011;68;48.792;9.164;2023-03-04T02:52:09;49.95;;;27.73;;
151;SDS011;68;48.792;9.164;2023-03-04T02:54:39;52.50;;;27.70;;
151;SDS011;68;48.792;9.164;2023-03-04T02:57:07;52.78;;;27.23;;
151;SDS011;68;48.792;9.164;2023-03-04T02:59:35;48.78;;;27.45;;
151;SDS011;68;48.792;9.164;2023-03-04T03:02:06;48.25;;;26.98;;
151;SDS011;68;48.792;9.164;2023-03-04T03:04:33;49.38;;;27.05;;
151;SDS011;68;48.792;9.164;2023-03-04T03:07:03;49.03;;;27.60;;
151;SDS011;68;48.792;9.164;2023-03-04T03:09:29;52.10;;;27.52;;
151;SDS011;68;48.792;9.164;2023-03-04T03:11:56;48.38;;;27.67;;
151;SDS011;68;48.792;9.164;2023-03-04T03:14:23;47.42;;;26.38;;
151;SDS011;68;48.792;9.164;2023-03-04T03:16:50;54.97;;;27.02;;
151;SDS011;68;48.792;9.164;2023-03-04T03:19:18;46.83;;;25.95;;
151;SDS011;68;48.792;9.164;2023-03-04T03:21:44;49.88;;;26.30;;
151;SDS011;68;48.792;9.164;2023-03-04T03:24:11;51.17;;;28.52;;
151;SDS011;68;48.792;9.164;2023-03-04T03:26:38;51.42;;;27.77;;
151;SDS011;68;48.792;9.164;2023-03-04T03:29:05;48.28;;;26.52;;
151;SDS011;68;48.792;9.164;2023-03-04T03:31:32;46.28;;;26.55;;
151;SDS011;68;48.792;9.164;2023-03-04T03:33:58;51.85;;;27.83;;
151;SDS011;68;48.792;9.164;2023-03-04T03:36:26;37.13;;;20.60;;
151;SDS011;68;48.792;9.164;2023-03-04T03:38:53;53.15;;;27.13;;
151;SDS011;68;48.792;9.164;2023-03-04T03:41:20;50.92;;;28.10;;
151;SDS011;68;48.792;9.164;2023-03-04T03:43:47;47.72;;;25.42;;
151;SDS011;68;48.792;9.164;2023-03-04T03:46:13;52.58;;;29.23;;
151;SDS011;68;48.792;9.164;2023-03-04T03:48:40;49.10;;;27.75;;
151;SDS011;68;48.792;9.164;2023-03-04T03:51:07;52.85;;;26.92;;
151;SDS011;68;48.792;9.164;2023-03-04T03:53:35;50.95;;;27.58;;
151;SDS011;68;48.792;9.164;2023-03-04T03:56:02;47.67;;;26.38;;
151;SDS011;68;48.792;9.164;2023-03-04T03:58:29;50.80;;;27.27;;
151;SDS011;68;48.792;9.164;2023-03-04T04:00:55;55.22;;;27.27;;
151;SDS011;68;48.792;9.164;2023-03-04T04:03:22;50.38;;;26.33;;
151;SDS011;68;48.792;9.164;2023-03-04T04:05:49;48.38;;;26.20;;
151;SDS011;68;48.792;9.164;2023-03-04T04:08:16;45.35;;;25.30;;
151;SDS011;68;48.792;9.164;2023-03-04T04:10:45;48.42;;;26.92;;
151;SDS011;68;48.792;9.164;2023-03-04T04:13:11;47.90;;;25.83;;
151;SDS011;68;48.792;9.164;2023-03-04T04:15:38;46.67;;;26.17;;
151;SDS011;68;48.792;9.164;2023-03-04T04:18:05;48.35;;;26.60;;
151;SDS011;68;48.792;9.164;2023-03-04T04:20:32;46.15;;;26.20;;
151;SDS011;68;48.792;9.164;2023-03-04T04:22:59;44.55;;;25.45;;
151;SDS011;68;48.792;9.164;2023-03-04T04:25:27;51.55;;;25.90;;
151;SDS011;68;48.792;9.164;2023-03-04T04:27:55;45.58;;;25.27;;
151;SDS011;68;48.792;9.164;2023-03-04T04:30:22;49.42;;;26.85;;
151;SDS011;68;48.792;9.164;2023-03-04T04:32:48;48.65;;;26.95;;
151;SDS011;68;48.792;9.164;2023-03-04T04:35:15;46.67;;;26.67;;
151;SDS011;68;48.792;9.164;2023-03-04T04:37:42;48.00;;;26.80;;
151;SDS011;68;48.792;9.164;2023-03-04T04:40:09;48.88;;;26.08;;
151;SDS011;68;48.792;9.164;2023-03-04T04:42:37;48.60;;;27.23;;
151;SDS011;68;48.792;9.164;2023-03-04T04:45:06;46.65;;;25.40;;
151;SDS011;68;48.792;9.164;2023-03-04T04:47:33;44.83;;;25.50;;
151;SDS011;68;48.792;9.164;2023-03-04T04:50:00;51.13;;;26.27;;
151;SDS011;68;48.792;9.164;2023-03-04T04:52:27;43.42;;;24.38;;
151;SDS011;68;48.792;9.164;2023-03-04T04:54:54;47.13;;;26.35;;
151;SDS011;68;48.792;9.164;2023-03-04T04:57:20;48.38;;;26.02;;
151;SDS011;68;48.792;9.164;2023-03-04T04:59:47;51.88;;;27.65;;
151;SDS011;68;48.792;9.164;2023-03-04T05:02:15;52.17;;;26.63;;
151;SDS011;68;48.792;9.164;2023-03-04T05:04:42;45.17;;;25.00;;
151;SDS011;68;48.792;9.164;2023-03-04T05:07:09;49.38;;;27.15;;
151;SDS011;68;48.792;9.164;2023-03-04T05:09:35;48.55;;;27.30;;
151;SDS011;68;48.792;9.164;2023-03-04T05:12:02;51.60;;;27.40;;
151;SDS011;68;48.792;9.164;2023-03-04T05:14:29;49.72;;;26.95;;
151;SDS011;68;48.792;9.164;2023-03-04T05:16:56;50.00;;;26.40;;
151;SDS011;68;48.792;9.164;2023-03-04T05:19:24;52.15;;;27.23;;
151;SDS011;68;48.792;9.164;2023-03-04T05:21:51;49.35;;;26.73;;
151;SDS011;68;48.792;9.164;2023-03-04T05:24:17;44.13;;;24.80;;
151;SDS011;68;48.792;9.164;2023-03-04T05:26:44;51.03;;;27.00;;
151;SDS011;68;48.792;9.164;2023-03-04T05:29:11;49.97;;;26.73;;
151;SDS011;68;48.792;9.164;2023-03-04T05:31:38;45.05;;;24.98;;
151;SDS011;68;48.792;9.164;2023-03-04T05:34:05;56.63;;;27.35;;
151;SDS011;68;48.792;9.164;2023-03-04T05:36:34;57.45;;;28.55;;
151;SDS011;68;48.792;9.164;2023-03-04T05:39:01;52.15;;;27.27;;
151;SDS011;68;48.792;9.164;2023-03-04T05:41:27;53.75;;;28.00;;
151;SDS011;68;48.792;9.164;2023-03-04T05:43:54;52.22;;;27.13;;
151;SDS011;68;48.792;9.164;2023-03-04T05:46:21;52.15;;;28.20;;
151;SDS011;68;48.792;9.164;2023-03-04T05:48:49;60.60;;;29.23;;
151;SDS011;68;48.792;9.164;2023-03-04T05:51:17;50.28;;;27.65;;
151;SDS011;68;48.792;9.164;2023-03-04T05:53:45;55.33;;;28.35;;
151;SDS011;68;48.792;9.164;2023-03-04T05:56:12;53.40;;;27.35;;
151;SDS011;68;48.792;9.164;2023-03-04T05:58:41;57.00;;;28.63;;
151;SDS011;68;48.792;9.164;2023-03-04T06:01:09;59.45;;;28.20;;
151;SDS011;68;48.792;9.164;2023-03-04T06:03:36;55.78;;;28.63;;
151;SDS011;68;48.792;9.164;2023-03-04T06:06:03;52.05;;;27.38;;
151;SDS011;68;48.792;9.164;2023-03-04T06:08:30;55.45;;;29.08;;
151;SDS011;68;48.792;9.164;2023-03-04T06:10:58;55.60;;;29.63;;
151;SDS011;68;48.792;9.164;2023-03-04T06:13:25;50.60;;;27.00;;
151;SDS011;68;48.792;9.164;2023-03-04T06:15:52;57.72;;;29.65;;
151;SDS011;68;48.792;9.164;2023-03-04T06:18:20;58.58;;;29.15;;
151;SDS011;68;48.792;9.164;2023-03-04T06:20:47;64.50;;;29.20;;
151;SDS011;68;48.792;9.164;2023-03-04T06:23:14;60.55;;;29.63;;
151;SDS011;68;48.792;9.164;2023-03-04T06:25:41;59.50;;;28.40;;
151;SDS011;68;48.792;9.164;2023-03-04T06:28:09;60.63;;;29.48;;
151;SDS011;68;48.792;9.164;2023-03-04T06:30:36;55.90;;;29.80;;
151;SDS011;68;48.792;9.164;2023-03-04T06:33:02;60.90;;;30.30;;
151;SDS011;68;48.792;9.164;2023-03-04T06:35:29;57.75;;;30.45;;
151;SDS011;68;48.792;9.164;2023-03-04T06:37:56;57.00;;;28.48;;
151;SDS011;68;48.792;9.164;2023-03-04T06:40:22;57.78;;;29.50;;
151;SDS011;68;48.792;9.164;2023-03-04T06:42:49;58.83;;;30.33;;
151;SDS011;68;48.792;9.164;2023-03-04T06:45:17;58.47;;;30.00;;
151;SDS011;68;48.792;9.164;2023-03-04T06:47:44;60.92;;;31.45;;
151;SDS011;68;48.792;9.164;2023-03-04T06:50:11;56.55;;;29.45;;
151;SDS011;68;48.792;9.164;2023-03-04T06:52:38;63.10;;;31.27;;
151;SDS011;68;48.792;9.164;2023-03-04T06:55:06;60.00;;;30.23;;
151;SDS011;68;48.792;9.164;2023-03-04T06:57:33;63.65;;;30.52;;
151;SDS011;68;48.792;9.164;2023-03-04T07:00:00;60.38;;;29.95;;
151;SDS011;68;48.792;9.164;2023-03-04T07:02:28;55.60;;;28.58;;
151;SDS011;68;48.792;9.164;2023-03-04T07:04:55;63.88;;;29.90;;
151;SDS011;68;48.792;9.164;2023-03-04T07:07:22;59.80;;;30.27;;
151;SDS011;68;48.792;9.164;2023-03-04T07:09:50;56.40;;;29.05;;
151;SDS011;68;48.792;9.164;2023-03-04T07:12:17;59.63;;;29.90;;
151;SDS011;68;48.792;9.164;2023-03-04T07:14:43;59.05;;;30.13;;
151;SDS011;68;48.792;9.164;2023-03-04T07:17:10;59.38;;;29.63;;
151;SDS011;68;48.792;9.164;2023-03-04T07:19:38;67.65;;;30.95;;
151;SDS011;68;48.792;9.164;2023-03-04T07:22:06;59.50;;;29.77;;
151;SDS011;68;48.792;9.164;2023-03-04T07:24:32;55.92;;;29.13;;
151;SDS011;68;48.792;9.164;2023-03-04T07:26:59;54.38;;;29.52;;
151;SDS011;68;48.792;9.164;2023-03-04T07:29:26;62.67;;;30.80;;
151;SDS011;68;48.792;9.164;2023-03-04T07:31:53;54.55;;;29.60;;
151;SDS011;68;48.792;9.164;2023-03-04T07:34:19;60.33;;;30.23;;
151;SDS011;68;48.792;9.164;2023-03-04T07:36:47;64.78;;;29.35;;
151;SDS011;68;48.792;9.164;2023-03-04T07:39:14;60.13;;;31.08;;
151;SDS011;68;48.792;9.164;2023-03-04T07:41:41;61.75;;;28.90;;
151;SDS011;68;48.792;9.164;2023-03-04T07:44:09;59.67;;;29.63;;
151;SDS011;68;48.792;9.164;2023-03-04T07:46:37;60.10;;;30.48;;
151;SDS011;68;48.792;9.164;2023-03-04T07:49:03;58.85;;;28.83;;
151;SDS011;68;48.792;9.164;2023-03-04T07:51:30;57.38;;;28.85;;
151;SDS011;68;48.792;9.164;2023-03-04T07:53:59;56.60;;;29.02;;
151;SDS011;68;48.792;9.164;2023-03-04T07:56:27;54.47;;;28.05;;
151;SDS011;68;48.792;9.164;2023-03-04T07:58:56;52.30;;;27.60;;
151;SDS011;68;48.792;9.164;2023-03-04T08:01:23;54.53;;;27.15;;
151;SDS011;68;48.792;9.164;2023-03-04T08:03:51;51.78;;;28.17;;
151;SDS011;68;48.792;9.164;2023-03-04T08:06:18;53.95;;;28.35;;
151;SDS011;68;48.792;9.164;2023-03-04T08:08:46;51.95;;;27.60;;
151;SDS011;68;48.792;9.164;2023-03-04T08:11:17;52.20;;;26.70;;
151;SDS011;68;48.792;9.164;2023-03-04T08:13:45;51.90;;;26.63;;
151;SDS011;68;48.792;9.164;2023-03-04T08:16:13;51.53;;;26.23;;
151;SDS011;68;48.792;9.164;2023-03-04T08:18:42;46.30;;;25.33;;
151;SDS011;68;48.792;9.164;2023-03-04T08:21:09;48.83;;;26.25;;
151;SDS011;68;48.792;9.164;2023-03-04T08:23:36;47.40;;;25.20;;
151;SDS011;68;48.792;9.164;2023-03-04T08:26:06;47.78;;;26.20;;
151;SDS011;68;48.792;9.164;2023-03-04T08:28:35;56.28;;;26.38;;
151;SDS011;68;48.792;9.164;2023-03-04T08:31:02;51.30;;;25.60;;
151;SDS011;68;48.792;9.164;2023-03-04T08:33:29;50.42;;;25.88;;
151;SDS011;68;48.792;9.164;2023-03-04T08:35:56;52.22;;;26.40;;
151;SDS011;68;48.792;9.164;2023-03-04T08:38:24;48.15;;;25.27;;
151;SDS011;68;48.792;9.164;2023-03-04T08:40:51;48.15;;;26.05;;
151;SDS011;68;48.792;9.164;2023-03-04T08:43:18;54.13;;;27.50;;
151;SDS011;68;48.792;9.164;2023-03-04T08:45:47;54.67;;;27.42;;
151;SDS011;68;48.792;9.164;2023-03-04T08:48:14;55.00;;;29.23;;
151;SDS011;68;48.792;9.164;2023-03-04T08:50:42;57.33;;;29.45;;
151;SDS011;68;48.792;9.164;2023-03-04T08:53:08;65.10;;;30.35;;
151;SDS011;68;48.792;9.164;2023-03-04T08:55:36;56.88;;;29.50;;
151;SDS011;68;48.792;9.164;2023-03-04T08:58:03;64.35;;;29.40;;
151;SDS011;68;48.792;9.164;2023-03-04T09:00:31;57.83;;;30.05;;
151;SDS011;68;48.792;9.164;2023-03-04T09:02:59;55.72;;;28.30;;
151;SDS011;68;48.792;9.164;2023-03-04T09:05:26;57.35;;;27.98;;
151;SDS011;68;48.792;9.164;2023-03-04T09:07:52;53.60;;;28.27;;
151;SDS011;68;48.792;9.164;2023-03-04T09:10:19;51.95;;;27.15;;
151;SDS011;68;48.792;9.164;2023-03-04T09:12:46;55.42;;;28.20;;
151;SDS011;68;48.792;9.164;2023-03-04T09:15:13;49.80;;;27.35;;
151;SDS011;68;48.792;9.164;2023-03-04T09:17:40;49.13;;;26.73;;
151;SDS011;68;48.792;9.164;2023-03-04T09:20:09;48.28;;;26.05;;
151;SDS011;68;48.792;9.164;2023-03-04T09:22:37;52.25;;;26.25;;
151;SDS011;68;48.792;9.164;2023-03-04T09:25:05;55.88;;;27.73;;
151;SDS011;68;48.792;9.164;2023-03-04T09:27:32;49.58;;;26.58;;
151;SDS011;68;48.792;9.164;2023-03-04T09:29:59;55.22;;;26.30;;
151;SDS011;68;48.792;9.164;2023-03-04T09:32:26;53.45;;;25.75;;
151;SDS011;68;48.792;9.164;2023-03-04T09:34:52;49.22;;;25.55;;
151;SDS011;68;48.792;9.164;2023-03-04T09:37:20;46.28;;;25.20;;
151;SDS011;68;48.792;9.164;2023-03-04T09:39:47;47.55;;;25.27;;
151;SDS011;68;48.792;9.164;2023-03-04T09:42:16;52.13;;;26.77;;
151;SDS011;68;48.792;9.164;2023-03-04T09:44:50;42.83;;;23.65;;
151;SDS011;68;48.792;9.164;2023-03-04T09:47:18;45.00;;;24.23;;
151;SDS011;68;48.792;9.164;2023-03-04T09:49:50;46.22;;;25.17;;
151;SDS011;68;48.792;9.164;2023-03-04T09:52:23;47.08;;;26.42;;
151;SDS011;68;48.792;9.164;2023-03-04T09:55:04;42.78;;;24.23;;
151;SDS011;68;48.792;9.164;2023-03-04T09:57:43;46.25;;;25.15;;
151;SDS011;68;48.792;9.164;2023-03-04T10:00:17;44.00;;;24.83;;
151;SDS011;68;48.792;9.164;2023-03-04T10:02:50;46.38;;;25.33;;
151;SDS011;68;48.792;9.164;2023-03-04T10:05:38;45.58;;;24.52;;
151;SDS011;68;48.792;9.164;2023-03-04T10:08:15;42.75;;;25.88;;
151;SDS011;68;48.792;9.164;2023-03-04T10:10:51;38.90;;;20.58;;
151;SDS011;68;48.792;9.164;2023-03-04T10:13:22;45.72;;;25.98;;
151;SDS011;68;48.792;9.164;2023-03-04T10:15:56;47.05;;;25.77;;
151;SDS011;68;48.792;9.164;2023-03-04T10:18:26;43.78;;;25.58;;
151;SDS011;68;48.792;9.164;2023-03-04T10:20:59;43.60;;;26.55;;
151;SDS011;68;48.792;9.164;2023-03-04T10:23:30;53.58;;;28.58;;
151;SDS011;68;48.792;9.164;2023-03-04T10:25:58;52.20;;;28.40;;
151;SDS011;68;48.792;9.164;2023-03-04T10:28:34;57.03;;;28.98;;
151;SDS011;68;48.792;9.164;2023-03-04T10:31:03;51.85;;;28.75;;
151;SDS011;68;48.792;9.164;2023-03-04T10:33:37;52.75;;;28.50;;
151;SDS011;68;48.792;9.164;2023-03-04T10:36:10;52.83;;;29.38;;
151;SDS011;68;48.792;9.164;2023-03-04T10:38:48;46.80;;;27.80;;
151;SDS011;68;48.792;9.164;2023-03-04T10:41:20;51.47;;;28.45;;
151;SDS011;68;48.792;9.164;2023-03-04T10:43:50;50.38;;;27.92;;
151;SDS011;68;48.792;9.164;2023-03-04T10:46:27;54.33;;;28.73;;
151;SDS011;68;48.792;9.164;2023-03-04T10:48:54;59.42;;;30.33;;
151;SDS011;68;48.792;9.164;2023-03-04T10:51:22;52.45;;;29.45;;
151;SDS011;68;48.792;9.164;2023-03-04T10:53:55;53.28;;;30.27;;
151;SDS011;68;48.792;9.164;2023-03-04T10:56:30;57.60;;;31.48;;
151;SDS011;68;48.792;9.164;2023-03-04T11:01:59;59.97;;;30.98;;
151;SDS011;68;48.792;9.164;2023-03-04T11:04:31;59.67;;;34.03;;
151;SDS011;68;48.792;9.164;2023-03-04T11:06:59;63.47;;;33.63;;
151;SDS011;68;48.792;9.164;2023-03-04T11:09:27;63.45;;;33.38;;
151;SDS011;68;48.792;9.164;2023-03-04T11:11:57;59.83;;;32.53;;
151;SDS011;68;48.792;9.164;2023-03-04T11:14:26;62.75;;;33.63;;
151;SDS011;68;48.792;9.164;2023-03-04T11:17:00;65.35;;;35.42;;
151;SDS011;68;48.792;9.164;2023-03-04T11:19:28;64.22;;;35.13;;
151;SDS011;68;48.792;9.164;2023-03-04T11:22:00;72.32;;;35.42;;
151;SDS011;68;48.792;9.164;2023-03-04T11:24:30;66.43;;;34.88;;
151;SDS011;68;48.792;9.164;2023-03-04T11:27:00;62.00;;;34.20;;
151;SDS011;68;48.792;9.164;2023-03-04T11:29:32;60.25;;;34.33;;
151;SDS011;68;48.792;9.164;2023-03-04T11:32:03;64.78;;;35.00;;
151;SDS011;68;48.792;9.164;2023-03-04T11:34:36;65.60;;;35.58;;
151;SDS011;68;48.792;9.164;2023-03-04T11:37:07;63.50;;;33.83;;
151;SDS011;68;48.792;9.164;2023-03-04T11:39:43;65.65;;;34.83;;
151;SDS011;68;48.792;9.164;2023-03-04T11:42:16;64.43;;;36.28;;
151;SDS011;68;48.792;9.164;2023-03-04T11:44:50;67.43;;;35.97;;
151;SDS011;68;48.792;9.164;2023-03-04T11:47:20;65.60;;;35.25;;
151;SDS011;68;48.792;9.164;2023-03-04T11:50:10;69.50;;;36.10;;
151;SDS011;68;48.792;9.164;2023-03-04T11:52:46;69.57;;;35.33;;
151;SDS011;68;48.792;9.164;2023-03-04T11:55:28;72.15;;;37.47;;
151;SDS011;68;48.792;9.164;2023-03-04T11:58:07;69.63;;;37.08;;
151;SDS011;68;48.792;9.164;2023-03-04T12:00:45;68.25;;;36.08;;
151;SDS011;68;48.792;9.164;2023-03-04T12:06:08;70.13;;;37.08;;
151;SDS011;68;48.792;9.164;2023-03-04T12:11:46;68.57;;;36.38;;
151;SDS011;68;48.792;9.164;2023-03-04T12:14:22;61.80;;;34.25;;
151;SDS011;68;48.792;9.164;2023-03-04T12:20:00;63.42;;;34.80;;
151;SDS011;68;48.792;9.164;2023-03-04T12:22:44;66.85;;;35.45;;
151;SDS011;68;48.792;9.164;2023-03-04T12:25:15;76.30;;;37.95;;
151;SDS011;68;48.792;9.164;2023-03-04T12:28:20;64.43;;;35.63;;
151;SDS011;68;48.792;9.164;2023-03-04T12:31:03;62.95;;;36.40;;
151;SDS011;68;48.792;9.164;2023-03-04T12:33:43;66.80;;;36.83;;
151;SDS011;68;48.792;9.164;2023-03-04T12:36:19;66.40;;;37.13;;
151;SDS011;68;48.792;9.164;2023-03-04T12:38:56;70.78;;;37.67;;
151;SDS011;68;48.792;9.164;2023-03-04T12:41:30;69.97;;;36.95;;
151;SDS011;68;48.792;9.164;2023-03-04T12:44:10;68.70;;;37.50;;
151;SDS011;68;48.792;9.164;2023-03-04T12:46:43;69.25;;;38.95;;
151;SDS011;68;48.792;9.164;2023-03-04T12:52:32;86.05;;;38.95;;
151;SDS011;68;48.792;9.164;2023-03-04T12:55:09;72.25;;;37.88;;
151;SDS011;68;48.792;9.164;2023-03-04T12:57:40;69.63;;;36.83;;
151;SDS011;68;48.792;9.164;2023-03-04T13:00:15;74.40;;;38.70;;
151;SDS011;68;48.792;9.164;2023-03-04T13:02:54;80.03;;;38.85;;
151;SDS011;68;48.792;9.164;2023-03-04T13:05:34;73.53;;;36.50;;
151;SDS011;68;48.792;9.164;2023-03-04T13:08:24;76.53;;;37.22;;
151;SDS011;68;48.792;9.164;2023-03-04T13:10:59;77.28;;;40.20;;
151;SDS011;68;48.792;9.164;2023-03-04T13:13:34;74.15;;;38.67;;
151;SDS011;68;48.792;9.164;2023-03-04T13:16:05;70.85;;;37.30;;
151;SDS011;68;48.792;9.164;2023-03-04T13:18:52;80.25;;;38.60;;
151;SDS011;68;48.792;9.164;2023-03-04T13:21:21;79.78;;;37.70;;
151;SDS011;68;48.792;9.164;2023-03-04T13:23:49;74.57;;;37.08;;
151;SDS011;68;48.792;9.164;2023-03-04T13:26:17;77.22;;;37.95;;
151;SDS011;68;48.792;9.164;2023-03-04T13:32:04;71.93;;;35.72;;
151;SDS011;68;48.792;9.164;2023-03-04T13:37:31;66.20;;;34.20;;
151;SDS011;68;48.792;9.164;2023-03-04T13:45:51;64.07;;;33.35;;
151;SDS011;68;48.792;9.164;2023-03-04T13:48:29;64.63;;;32.58;;
151;SDS011;68;48.792;9.164;2023-03-04T13:51:00;63.38;;;33.90;;
151;SDS011;68;48.792;9.164;2023-03-04T13:53:43;53.30;;;28.35;;
151;SDS011;68;48.792;9.164;2023-03-04T13:59:25;46.10;;;24.50;;
151;SDS011;68;48.792;9.164;2023-03-04T14:01:55;46.72;;;25.55;;
151;SDS011;68;48.792;9.164;2023-03-04T14:04:40;45.65;;;23.33;;
151;SDS011;68;48.792;9.164;2023-03-04T14:07:19;46.45;;;24.10;;
151;SDS011;68;48.792;9.164;2023-03-04T14:09:53;46.15;;;22.63;;
151;SDS011;68;48.792;9.164;2023-03-04T14:12:21;46.50;;;23.48;;
151;SDS011;68;48.792;9.164;2023-03-04T14:14:49;39.10;;;21.38;;
151;SDS011;68;48.792;9.164;2023-03-04T14:17:19;44.38;;;22.60;;
151;SDS011;68;48.792;9.164;2023-03-04T14:19:50;44.70;;;22.75;;
151;SDS011;68;48.792;9.164;2023-03-04T14:22:21;44.58;;;22.02;;
151;SDS011;68;48.792;9.164;2023-03-04T14:24:54;38.55;;;21.10;;
151;SDS011;68;48.792;9.164;2023-03-04T14:27:22;39.42;;;21.88;;
151;SDS011;68;48.792;9.164;2023-03-04T14:29:53;50.92;;;23.48;;
151;SDS011;68;48.792;9.164;2023-03-04T14:32:21;48.20;;;22.98;;
151;SDS011;68;48.792;9.164;2023-03-04T14:34:49;37.53;;;21.45;;
151;SDS011;68;48.792;9.164;2023-03-04T14:37:20;43.50;;;22.52;;
151;SDS011;68;48.792;9.164;2023-03-04T14:39:49;48.53;;;23.58;;
151;SDS011;68;48.792;9.164;2023-03-04T14:42:21;45.45;;;22.90;;
151;SDS011;68;48.792;9.164;2023-03-04T14:44:50;45.67;;;21.60;;
151;SDS011;68;48.792;9.164;2023-03-04T14:47:19;68.20;;;23.80;;
151;SDS011;68;48.792;9.164;2023-03-04T14:49:51;44.95;;;23.35;;
151;SDS011;68;48.792;9.164;2023-03-04T14:52:25;54.13;;;26.13;;
151;SDS011;68;48.792;9.164;2023-03-04T14:55:00;49.13;;;23.95;;
151;SDS011;68;48.792;9.164;2023-03-04T14:57:33;47.40;;;23.92;;
151;SDS011;68;48.792;9.164;2023-03-04T15:00:14;52.55;;;25.00;;
151;SDS011;68;48.792;9.164;2023-03-04T15:02:48;53.38;;;24.17;;
151;SDS011;68;48.792;9.164;2023-03-04T15:05:18;51.75;;;23.45;;
151;SDS011;68;48.792;9.164;2023-03-04T15:07:49;47.70;;;24.70;;
151;SDS011;68;48.792;9.164;2023-03-04T15:10:19;49.90;;;25.15;;
151;SDS011;68;48.792;9.164;2023-03-04T15:12:51;51.58;;;25.85;;
151;SDS011;68;48.792;9.164;2023-03-04T15:15:29;49.13;;;24.33;;
151;SDS011;68;48.792;9.164;2023-03-04T15:17:59;48.60;;;24.83;;
151;SDS011;68;48.792;9.164;2023-03-04T15:20:30;48.60;;;24.85;;
151;SDS011;68;48.792;9.164;2023-03-04T15:22:59;46.42;;;23.48;;
151;SDS011;68;48.792;9.164;2023-03-04T15:25:27;50.20;;;24.65;;
151;SDS011;68;48.792;9.164;2023-03-04T15:27:55;52.95;;;24.60;;
151;SDS011;68;48.792;9.164;2023-03-04T15:30:23;51.40;;;23.83;;
151;SDS011;68;48.792;9.164;2023-03-04T15:32:52;49.22;;;23.20;;
151;SDS011;68;48.792;9.164;2023-03-04T15:35:19;44.53;;;22.58;;
151;SDS011;68;48.792;9.164;2023-03-04T15:37:49;53.00;;;23.58;;
151;SDS011;68;48.792;9.164;2023-03-04T15:40:20;44.20;;;22.92;;
151;SDS011;68;48.792;9.164;2023-03-04T15:42:51;44.92;;;22.95;;
151;SDS011;68;48.792;9.164;2023-03-04T15:45:20;47.67;;;23.85;;
151;SDS011;68;48.792;9.164;2023-03-04T15:47:48;49.92;;;24.27;;
151;SDS011;68;48.792;9.164;2023-03-04T15:50:15;49.28;;;23.08;;
151;SDS011;68;48.792;9.164;2023-03-04T15:52:43;49.33;;;23.92;;
151;SDS011;68;48.792;9.164;2023-03-04T15:55:14;52.03;;;23.90;;
151;SDS011;68;48.792;9.164;2023-03-04T15:57:43;45.50;;;23.95;;
151;SDS011;68;48.792;9.164;2023-03-04T16:00:11;45.60;;;23.98;;
151;SDS011;68;48.792;9.164;2023-03-04T16:02:40;49.17;;;23.13;;
151;SDS011;68;48.792;9.164;2023-03-04T16:05:07;53.08;;;24.00;;
151;SDS011;68;48.792;9.164;2023-03-04T16:07:34;52.03;;;23.33;;
151;SDS011;68;48.792;9.164;2023-03-04T16:10:05;48.90;;;22.63;;
151;SDS011;68;48.792;9.164;2023-03-04T16:12:38;53.47;;;24.33;;
151;SDS011;68;48.792;9.164;2023-03-04T16:15:08;44.83;;;23.17;;